Chalk, Texas
Current Conditions -  °F | °C
As of 10:53 AM on Thursday 30 Oct 2014 (Local Time) from KCDS Reporting Station
Clear Clear  
Wind Chill: 19°   Ceiling: Unl
Heat Index: 19°   Visibility: 10mi
Dew Point:   Wind: 5mph
Humidity: 51%   Direction: 20°NNE
Pressure: 30.17"   Gusts: NA
Location:  33.87°N, 100.22°W
Report Text: KCDS 301553Z AUTO 02004KT 10SM CLR 19/09 A3017 RMK AO2 SLP204 T01940089
Loading
Personal Weather Stations






























Interactive Weather Map
Tropical Storm Tracking
New forecast layout! Learn more

10-Day Weather Forecast

Advertisements
Track Severe Weather on mobile